Etusivu
METAR-TAF:

METAR-TAF

Lentoasemat :

Maarianhaminan lentoasema

Maarianhamina, Suomi

Leveyspiiri: 60-07N, Pituuspiiri: 019-54E, korkeus merenpinnasta: 6 m

Tämänhetkinen sää

Tämä raportti tehtiin 17 minuuttia sitten, kello 20.20 UTC
Tuuli 5 kn idästä, vaihdellen idän ja kaakon välillä
Lämpötila 12°C
Kosteus 40%
Ilmanpaine 1023 hPa
Näkyvyys 10 km tai enemmän
ei pilviä alle 1500 m:ssä eikä cumulonimbus-pilviä

METAR: EFMA 242020Z AUTO 10005KT 080V140 CAVOK 12/M01 Q1023

Aika: 23:37 (20:37 UTC)

Sääennuste

Tämä raportti tehtiin 3 tuntia ja 2 minuuttia sitten, kello 17.35 UTC
Ennuste voimassa 24. päivästä klo 18 UTC - 25. päivään klo 03 UTC
Tuuli 7 kn idästä
Näkyvyys 10 km tai enemmän
ei pilviä alle 1500 m:ssä eikä cumulonimbus-pilviä

TAF: EFMA 241735Z 2418/2503 10007KT CAVOK

Säähavainnot ja -ennusteet yli 4000 lentoasemalta (METAR- ja TAF-raportit).

Käytössä olevat sääasemat on merkitty karttaan keltaisilla ja punaisilla pisteillä.

Aseta hiiri pisteen päälle nähdäksesi sääaseman nimen.

Klikkaa sitten nähdäksesi säähavainnot ja -ennusteet.

Kartan vaihtaminen: klikkaa mustalla rastilla varustettuja vihreitä pisteitä, niin voit zoomata sisään; viivalla varustettua vihreää pistettä, niin voit zoomata ulos tai vihreitä nuolia, niin pääset viereisille kartoille.


METAR-TAF: